createdAt,value
2022-09-02T00:00:46.651Z,1.06
2022-09-02T00:03:14.546Z,1.15
2022-09-02T00:05:42.206Z,1.09
2022-09-02T00:08:10.440Z,1.06
2022-09-02T00:10:38.565Z,1.16
2022-09-02T00:13:06.732Z,1.13
2022-09-02T00:15:34.144Z,1.10
2022-09-02T00:18:01.911Z,1.06
2022-09-02T00:20:29.677Z,1.05
2022-09-02T00:22:56.787Z,1.13
2022-09-02T00:25:23.456Z,1.16
2022-09-02T00:27:50.594Z,1.12
2022-09-02T00:30:17.640Z,1.15
2022-09-02T00:32:44.419Z,1.14
2022-09-02T00:35:11.251Z,1.32
2022-09-02T00:37:38.704Z,1.16
2022-09-02T00:40:06.990Z,1.10
2022-09-02T00:42:34.336Z,1.19
2022-09-02T00:45:02.517Z,1.09
2022-09-02T00:47:31.176Z,1.25
2022-09-02T00:49:58.930Z,1.16
2022-09-02T00:52:32.508Z,1.20
2022-09-02T00:55:05.601Z,1.24
2022-09-02T00:57:37.105Z,1.19
2022-09-02T01:00:10.033Z,1.08
2022-09-02T01:02:37.780Z,1.29
2022-09-02T01:05:06.439Z,1.34
2022-09-02T01:07:34.907Z,1.19
2022-09-02T01:10:03.388Z,1.16
2022-09-02T01:12:31.148Z,1.19
2022-09-02T01:14:57.682Z,1.27
2022-09-02T01:17:25.231Z,1.23
2022-09-02T01:19:55.583Z,1.38
2022-09-02T01:22:24.669Z,1.22
2022-09-02T01:24:51.704Z,1.30
2022-09-02T01:27:20.000Z,1.20
2022-09-02T01:29:51.139Z,1.25
2022-09-02T01:32:18.776Z,1.45
2022-09-02T01:34:45.649Z,1.31
2022-09-02T01:37:12.276Z,1.32
2022-09-02T01:39:39.034Z,1.21
2022-09-02T01:42:06.055Z,1.16
2022-09-02T01:44:33.704Z,1.35
2022-09-02T01:47:00.303Z,1.32
2022-09-02T01:49:27.030Z,1.21
2022-09-02T01:51:54.913Z,1.15
2022-09-02T01:54:23.214Z,1.19
2022-09-02T01:56:49.771Z,1.18
2022-09-02T01:59:18.108Z,1.23
2022-09-02T02:01:45.289Z,1.31
2022-09-02T02:04:13.531Z,1.28
2022-09-02T02:06:44.307Z,1.22
2022-09-02T02:09:12.539Z,1.36
2022-09-02T02:11:39.140Z,1.33
2022-09-02T02:14:05.848Z,1.19
2022-09-02T02:16:32.551Z,1.31
2022-09-02T02:18:59.527Z,1.36
2022-09-02T02:21:26.191Z,1.26
2022-09-02T02:23:53.232Z,1.42
2022-09-02T02:26:19.757Z,1.19
2022-09-02T02:28:47.314Z,1.18
2022-09-02T02:31:13.895Z,1.28
2022-09-02T02:33:40.548Z,1.14
2022-09-02T02:36:07.938Z,1.28
2022-09-02T02:38:35.718Z,1.27
2022-09-02T02:41:06.072Z,1.28
2022-09-02T02:43:33.288Z,1.32
2022-09-02T02:46:00.129Z,1.31
2022-09-02T02:48:26.858Z,1.21
2022-09-02T02:50:53.553Z,1.24
2022-09-02T02:53:20.160Z,1.33
2022-09-02T02:55:49.839Z,1.35
2022-09-02T02:58:16.902Z,1.26
2022-09-02T03:00:44.566Z,1.43
2022-09-02T03:03:12.172Z,1.22
2022-09-02T03:05:39.993Z,1.31
2022-09-02T03:08:08.757Z,1.27
2022-09-02T03:10:37.900Z,1.21
2022-09-02T03:13:04.741Z,1.39
2022-09-02T03:15:31.466Z,1.32
2022-09-02T03:17:58.023Z,1.37
2022-09-02T03:20:25.144Z,1.23
2022-09-02T03:22:54.871Z,1.28
2022-09-02T03:25:22.342Z,1.34
2022-09-02T03:27:49.678Z,1.30
2022-09-02T03:30:19.669Z,1.23
2022-09-02T03:32:46.826Z,1.29
2022-09-02T03:35:15.643Z,1.45
2022-09-02T03:37:42.268Z,1.41
2022-09-02T03:40:11.643Z,1.23
2022-09-02T03:42:38.814Z,1.34
2022-09-02T03:45:08.333Z,1.31
2022-09-02T03:47:35.235Z,1.22
2022-09-02T03:50:03.534Z,1.43
2022-09-02T03:52:30.708Z,1.25
2022-09-02T03:54:57.315Z,1.30
2022-09-02T03:57:25.897Z,1.39
2022-09-02T03:59:52.938Z,1.22
2022-09-02T04:02:19.980Z,1.24
2022-09-02T04:04:47.020Z,1.33
2022-09-02T04:07:13.725Z,1.26
2022-09-02T04:09:44.646Z,1.38
2022-09-02T04:12:13.093Z,1.34
2022-09-02T04:14:39.768Z,1.35
2022-09-02T04:17:06.392Z,1.34
2022-09-02T04:19:32.910Z,1.29
2022-09-02T04:21:59.456Z,1.36
2022-09-02T04:24:26.082Z,1.25
2022-09-02T04:26:52.646Z,1.33
2022-09-02T04:29:19.434Z,1.32
2022-09-02T04:31:46.232Z,1.28
2022-09-02T04:34:12.904Z,1.37
2022-09-02T04:36:39.542Z,1.33
2022-09-02T04:39:09.222Z,1.26
2022-09-02T04:41:37.471Z,1.23
2022-09-02T04:44:04.994Z,1.36
2022-09-02T04:46:34.487Z,1.38
2022-09-02T04:49:02.627Z,1.50
2022-09-02T04:51:29.956Z,1.27
2022-09-02T04:53:56.562Z,1.28
2022-09-02T04:56:25.202Z,1.34
2022-09-02T04:58:52.817Z,1.30
2022-09-02T05:01:22.043Z,1.39
2022-09-02T05:03:49.152Z,1.34
2022-09-02T05:06:17.672Z,1.40
2022-09-02T05:08:48.100Z,1.29
2022-09-02T05:11:20.029Z,1.44
2022-09-02T05:13:51.532Z,1.35
2022-09-02T05:16:21.053Z,1.45
2022-09-02T05:18:48.069Z,1.42
2022-09-02T05:21:14.984Z,1.32
2022-09-02T05:23:41.698Z,1.26
2022-09-02T05:26:09.258Z,1.43
2022-09-02T05:28:36.266Z,1.42
2022-09-02T05:31:05.651Z,1.50
2022-09-02T05:33:33.105Z,1.67
2022-09-02T05:35:59.819Z,1.56
2022-09-02T05:38:26.428Z,1.36
2022-09-02T05:40:53.276Z,1.41
2022-09-02T05:43:19.919Z,1.55
2022-09-02T05:45:48.460Z,1.50
2022-09-02T05:48:33.906Z,1.57
2022-09-02T05:51:04.721Z,1.50
2022-09-02T05:53:31.559Z,1.40
2022-09-02T05:55:58.950Z,1.53
2022-09-02T05:58:25.468Z,1.58
2022-09-02T06:00:52.498Z,1.56
2022-09-02T06:03:21.064Z,1.47
2022-09-02T06:06:01.739Z,1.39
2022-09-02T06:08:31.563Z,1.52
2022-09-02T06:10:58.285Z,1.47
2022-09-02T06:13:25.030Z,1.41
2022-09-02T06:15:51.782Z,1.62
2022-09-02T06:18:18.426Z,1.65
2022-09-02T06:20:46.294Z,1.77
2022-09-02T06:23:14.234Z,1.94
2022-09-02T06:25:42.442Z,1.64
2022-09-02T06:28:09.094Z,1.53
2022-09-02T06:30:38.530Z,4.64
2022-09-02T06:33:05.119Z,3.63
2022-09-02T06:35:32.214Z,3.72
2022-09-02T06:38:00.621Z,1.98
2022-09-02T06:40:27.681Z,1.68
2022-09-02T06:42:54.567Z,2.06
2022-09-02T06:45:21.244Z,5.50
2022-09-02T06:47:47.946Z,2.71
2022-09-02T06:50:15.491Z,1.84
2022-09-02T06:52:42.218Z,1.66
2022-09-02T06:55:10.577Z,1.57
2022-09-02T06:57:37.684Z,1.69
2022-09-02T07:00:09.699Z,1.74
2022-09-02T07:02:37.535Z,1.72
2022-09-02T07:05:10.577Z,1.71
2022-09-02T07:07:39.250Z,1.72
2022-09-02T07:10:08.162Z,1.65
2022-09-02T07:12:36.483Z,1.67
2022-09-02T07:15:03.566Z,1.75
2022-09-02T07:17:30.374Z,1.65
2022-09-02T07:20:00.430Z,2.97
2022-09-02T07:22:27.867Z,7.50
2022-09-02T07:24:54.775Z,6.30
2022-09-02T07:27:22.174Z,5.93
2022-09-02T07:29:49.324Z,4.79
2022-09-02T07:32:16.974Z,3.72
2022-09-02T07:34:43.837Z,3.45
2022-09-02T07:37:11.244Z,2.77
2022-09-02T07:39:38.030Z,2.93
2022-09-02T07:42:04.928Z,2.15
2022-09-02T07:44:34.236Z,2.55
2022-09-02T07:47:00.806Z,2.57
2022-09-02T07:49:27.990Z,2.50
2022-09-02T07:51:54.767Z,2.25
2022-09-02T07:54:24.271Z,2.09
2022-09-02T07:56:51.262Z,2.40
2022-09-02T07:59:19.006Z,2.00
2022-09-02T08:01:46.063Z,2.13
2022-09-02T08:04:13.915Z,2.14
2022-09-02T08:06:40.649Z,2.46
2022-09-02T08:09:11.963Z,2.19
2022-09-02T08:11:39.928Z,1.93
2022-09-02T08:14:08.263Z,1.96
2022-09-02T08:16:35.461Z,2.07
2022-09-02T08:19:02.262Z,2.00
2022-09-02T08:21:29.526Z,2.02
2022-09-02T08:23:57.491Z,1.99
2022-09-02T08:26:24.132Z,2.13
2022-09-02T08:28:50.803Z,2.12
2022-09-02T08:31:18.585Z,2.25
2022-09-02T08:33:45.227Z,1.96
2022-09-02T08:36:15.016Z,2.31
2022-09-02T08:38:42.698Z,2.31
2022-09-02T08:41:32.066Z,2.05
2022-09-02T08:44:01.668Z,2.19
2022-09-02T08:46:31.498Z,2.24
2022-09-02T08:49:08.405Z,2.32
2022-09-02T08:51:42.892Z,2.40
2022-09-02T08:54:29.927Z,2.42
2022-09-02T08:56:58.146Z,2.21
2022-09-02T08:59:27.444Z,2.53
2022-09-02T09:02:01.007Z,2.38
2022-09-02T09:04:33.680Z,2.40
2022-09-02T09:07:03.231Z,2.27
2022-09-02T09:09:40.845Z,2.38
2022-09-02T09:12:18.284Z,2.25
2022-09-02T09:15:03.359Z,2.45
2022-09-02T09:17:51.557Z,2.25
2022-09-02T09:20:20.599Z,2.22
2022-09-02T09:22:49.731Z,2.27
2022-09-02T09:25:17.657Z,2.47
2022-09-02T09:27:47.481Z,2.63
2022-09-02T09:30:15.659Z,2.51
2022-09-02T09:32:42.337Z,2.50
2022-09-02T09:35:09.800Z,2.50
2022-09-02T09:37:38.242Z,2.26
2022-09-02T09:40:25.878Z,2.35
2022-09-02T09:42:52.894Z,2.74
2022-09-02T09:45:32.877Z,2.87
2022-09-02T09:48:19.044Z,2.54
2022-09-02T09:50:47.270Z,2.90
2022-09-02T09:53:34.206Z,2.60
2022-09-02T09:56:02.374Z,2.55
2022-09-02T09:58:32.448Z,2.42
2022-09-02T10:01:00.873Z,2.53
2022-09-02T10:03:32.919Z,2.69
2022-09-02T10:06:17.064Z,2.99
2022-09-02T10:08:57.804Z,2.62
2022-09-02T10:11:26.937Z,2.39
2022-09-02T10:13:59.759Z,2.70
2022-09-02T10:16:29.707Z,2.74
2022-09-02T10:19:03.958Z,2.73
2022-09-02T10:21:33.524Z,2.72
2022-09-02T10:24:18.924Z,2.82
2022-09-02T10:26:51.306Z,2.80
2022-09-02T10:29:20.907Z,2.80
2022-09-02T10:31:55.155Z,2.71
2022-09-02T10:34:35.044Z,2.94
2022-09-02T10:37:04.760Z,2.62
2022-09-02T10:39:49.749Z,2.69
2022-09-02T10:42:16.407Z,2.43
2022-09-02T10:44:49.055Z,2.55
2022-09-02T10:47:30.701Z,2.67
2022-09-02T10:50:22.174Z,2.45
2022-09-02T10:53:12.467Z,2.36
2022-09-02T10:55:50.458Z,2.62
2022-09-02T10:58:28.269Z,2.66
2022-09-02T11:00:56.990Z,2.61
2022-09-02T11:03:24.050Z,2.57
2022-09-02T11:05:53.896Z,2.81
2022-09-02T11:08:42.952Z,2.44
2022-09-02T11:11:21.478Z,2.71
2022-09-02T11:14:07.677Z,2.47
2022-09-02T11:19:25.555Z,2.92
2022-09-02T11:22:12.331Z,3.10
2022-09-02T11:24:46.610Z,2.93
2022-09-02T11:27:32.292Z,3.10
2022-09-02T11:30:02.557Z,3.29
2022-09-02T11:32:33.748Z,3.59
2022-09-02T11:35:04.827Z,2.96
2022-09-02T11:37:34.456Z,2.95
2022-09-02T11:40:33.330Z,3.35
2022-09-02T11:43:14.638Z,3.09
2022-09-02T11:45:47.587Z,2.81
2022-09-02T11:48:29.629Z,3.47
2022-09-02T11:50:56.357Z,4.92
2022-09-02T11:53:23.149Z,2.83
2022-09-02T11:56:00.680Z,2.87
2022-09-02T11:58:39.751Z,2.98
2022-09-02T12:01:06.380Z,2.88
2022-09-02T12:04:15.869Z,3.42
2022-09-02T12:06:31.590Z,6.12
2022-09-02T12:09:00.695Z,3.05
2022-09-02T12:11:39.916Z,2.92
2022-09-02T12:14:08.310Z,3.05
2022-09-02T12:16:36.753Z,3.35
2022-09-02T12:19:07.408Z,9.63
2022-09-02T12:21:38.955Z,36.86
2022-09-02T12:24:09.203Z,8.75
2022-09-02T12:26:35.699Z,4.43
2022-09-02T12:29:13.394Z,3.80
2022-09-02T12:31:42.982Z,3.46
2022-09-02T12:34:22.334Z,3.37
2022-09-02T12:36:52.200Z,5.60
2022-09-02T12:39:28.025Z,5.74
2022-09-02T12:41:57.726Z,7.36
2022-09-02T12:44:24.278Z,8.57
2022-09-02T12:47:00.274Z,15.91
2022-09-02T12:49:45.764Z,30.44
2022-09-02T12:52:32.298Z,25.68
2022-09-02T12:55:03.856Z,11.56
2022-09-02T12:57:44.862Z,7.01
2022-09-02T13:00:17.084Z,3.93
2022-09-02T13:03:10.121Z,2.90
2022-09-02T13:05:42.891Z,3.02
2022-09-02T13:08:27.874Z,2.87
2022-09-02T13:11:14.232Z,2.82
2022-09-02T13:14:03.753Z,2.73
2022-09-02T13:16:39.390Z,2.73
2022-09-02T13:19:12.493Z,6.08
2022-09-02T13:21:41.986Z,4.27
2022-09-02T13:24:15.675Z,5.98
2022-09-02T13:26:58.764Z,6.80
2022-09-02T13:29:26.317Z,7.32
2022-09-02T13:32:00.474Z,3.17
2022-09-02T13:34:29.229Z,2.66
2022-09-02T13:36:55.831Z,2.81
2022-09-02T13:39:27.585Z,2.78
2022-09-02T13:41:54.767Z,2.42
2022-09-02T13:44:31.300Z,2.81
2022-09-02T13:47:05.287Z,2.97
2022-09-02T13:49:40.744Z,2.65
2022-09-02T13:52:17.074Z,2.61
2022-09-02T13:54:47.047Z,2.58
2022-09-02T13:57:18.571Z,2.80
2022-09-02T13:59:50.875Z,2.63
2022-09-02T14:02:34.521Z,2.72
2022-09-02T14:05:16.465Z,2.67
2022-09-02T14:07:54.697Z,3.78
2022-09-02T14:10:23.897Z,3.15
2022-09-02T14:12:51.442Z,2.98
2022-09-02T14:15:24.371Z,2.76
2022-09-02T14:18:09.941Z,3.10
2022-09-02T14:20:37.862Z,3.74
2022-09-02T14:23:04.610Z,2.77
2022-09-02T14:25:39.124Z,3.05
2022-09-02T14:28:11.407Z,2.70
2022-09-02T14:30:39.878Z,2.82
2022-09-02T14:33:36.017Z,2.99
2022-09-02T14:36:08.018Z,2.78
2022-09-02T14:38:50.025Z,2.49
2022-09-02T14:41:16.546Z,2.77
2022-09-02T14:43:48.625Z,2.83
2022-09-02T14:46:27.069Z,2.78
2022-09-02T14:49:05.426Z,2.75
2022-09-02T14:51:52.294Z,2.68
2022-09-02T14:54:37.337Z,2.83
2022-09-02T14:57:05.128Z,2.97
2022-09-02T14:59:31.985Z,2.77
2022-09-02T15:01:59.264Z,2.83
2022-09-02T15:04:25.929Z,3.03
2022-09-02T15:06:52.852Z,3.00
2022-09-02T15:09:19.795Z,2.84
2022-09-02T15:11:53.218Z,2.75
2022-09-02T15:14:19.998Z,3.18
2022-09-02T15:16:46.589Z,3.14
2022-09-02T15:19:13.611Z,3.41
2022-09-02T15:21:40.551Z,3.11
2022-09-02T15:24:07.290Z,2.92
2022-09-02T15:26:33.897Z,3.02
2022-09-02T15:29:00.452Z,3.22
2022-09-02T15:31:27.246Z,3.04
2022-09-02T15:33:53.965Z,2.98
2022-09-02T15:36:21.288Z,2.78
2022-09-02T15:38:47.904Z,2.84
2022-09-02T15:41:18.940Z,2.84
2022-09-02T15:43:46.617Z,3.12
2022-09-02T15:46:27.080Z,3.07
2022-09-02T15:48:56.861Z,2.98
2022-09-02T15:51:27.634Z,2.89
2022-09-02T15:54:00.824Z,2.83
2022-09-02T15:56:28.784Z,2.81
2022-09-02T15:58:59.757Z,2.82
2022-09-02T16:01:31.640Z,2.87
2022-09-02T16:03:58.509Z,2.84
2022-09-02T16:06:25.880Z,2.78
2022-09-02T16:08:52.425Z,2.91
2022-09-02T16:11:19.775Z,2.95
2022-09-02T16:13:46.525Z,3.18
2022-09-02T16:16:14.407Z,3.01
2022-09-02T16:18:42.288Z,3.05
2022-09-02T16:21:11.042Z,2.94
2022-09-02T16:23:38.282Z,2.92
2022-09-02T16:26:07.779Z,2.91
2022-09-02T16:28:35.365Z,2.97
2022-09-02T16:31:02.256Z,2.93
2022-09-02T16:33:28.819Z,2.74
2022-09-02T16:35:55.438Z,3.02
2022-09-02T16:38:22.177Z,2.86
2022-09-02T16:40:56.319Z,2.67
2022-09-02T16:43:24.223Z,2.77
2022-09-02T16:45:53.634Z,2.93
2022-09-02T16:48:25.561Z,2.95
2022-09-02T16:50:52.387Z,2.80
2022-09-02T16:53:19.125Z,3.01
2022-09-02T16:55:47.525Z,3.13
2022-09-02T16:58:14.426Z,2.94
2022-09-02T17:00:41.782Z,3.30
2022-09-02T17:03:12.449Z,3.20
2022-09-02T17:05:39.610Z,3.18
2022-09-02T17:08:07.033Z,3.26
2022-09-02T17:10:35.154Z,3.58
2022-09-02T17:13:02.045Z,3.37
2022-09-02T17:15:29.658Z,3.10
2022-09-02T17:17:56.848Z,3.29
2022-09-02T17:20:24.315Z,3.77
2022-09-02T17:22:51.517Z,3.70
2022-09-02T17:25:18.191Z,4.04
2022-09-02T17:27:44.850Z,3.49
2022-09-02T17:30:12.518Z,3.69
2022-09-02T17:32:39.787Z,3.57
2022-09-02T17:35:08.219Z,3.71
2022-09-02T17:37:37.392Z,4.02
2022-09-02T17:40:06.101Z,3.57
2022-09-02T17:42:33.938Z,3.72
2022-09-02T17:45:00.524Z,3.82
2022-09-02T17:47:27.107Z,3.87
2022-09-02T17:49:53.743Z,4.53
2022-09-02T17:52:24.222Z,5.18
2022-09-02T17:54:52.403Z,4.01
2022-09-02T17:57:23.694Z,3.66
2022-09-02T17:59:53.380Z,3.53
2022-09-02T18:02:38.851Z,3.43
2022-09-02T18:05:11.728Z,3.62
2022-09-02T18:07:41.331Z,3.56
2022-09-02T18:10:07.941Z,3.31
2022-09-02T18:12:36.664Z,3.47
2022-09-02T18:15:04.749Z,3.46
2022-09-02T18:17:35.910Z,3.37
2022-09-02T18:20:21.346Z,3.33
2022-09-02T18:22:50.919Z,3.50
2022-09-02T18:25:17.364Z,3.60
2022-09-02T18:27:46.994Z,3.15
2022-09-02T18:30:18.580Z,3.47
2022-09-02T18:32:55.955Z,3.29
2022-09-02T18:35:34.349Z,3.26
2022-09-02T18:38:08.734Z,3.34
2022-09-02T18:40:49.130Z,3.32
2022-09-02T18:43:26.020Z,3.58
2022-09-02T18:45:54.702Z,3.36
2022-09-02T18:48:25.722Z,3.36
2022-09-02T18:50:56.922Z,3.55
2022-09-02T18:53:27.998Z,3.24
2022-09-02T18:55:54.948Z,3.50
2022-09-02T18:58:29.462Z,3.45
2022-09-02T19:01:00.159Z,3.40
2022-09-02T19:03:33.450Z,3.52
2022-09-02T19:06:00.542Z,3.91
2022-09-02T19:08:30.574Z,3.95
2022-09-02T19:11:02.749Z,3.80
2022-09-02T19:13:30.570Z,3.95
2022-09-02T19:16:02.614Z,4.18
2022-09-02T19:18:31.449Z,4.02
2022-09-02T19:20:58.819Z,3.88
2022-09-02T19:23:27.058Z,3.29
2022-09-02T19:25:53.896Z,3.48
2022-09-02T19:28:22.072Z,3.38
2022-09-02T19:30:51.974Z,3.28
2022-09-02T19:33:18.586Z,3.31
2022-09-02T19:35:47.477Z,3.38
2022-09-02T19:38:17.590Z,3.44
2022-09-02T19:40:45.409Z,3.43
2022-09-02T19:43:13.771Z,3.37
2022-09-02T19:45:40.740Z,3.48
2022-09-02T19:48:11.153Z,3.41
2022-09-02T19:50:42.902Z,3.30
2022-09-02T19:53:18.795Z,3.47
2022-09-02T19:55:45.638Z,3.52
2022-09-02T19:58:12.253Z,3.58
2022-09-02T20:00:42.459Z,3.30
2022-09-02T20:03:09.860Z,3.43
2022-09-02T20:05:38.635Z,3.41
2022-09-02T20:08:05.251Z,3.69
2022-09-02T20:10:31.803Z,3.56
2022-09-02T20:12:59.019Z,3.44
2022-09-02T20:15:25.553Z,3.26
2022-09-02T20:17:52.142Z,3.32
2022-09-02T20:20:21.820Z,3.40
2022-09-02T20:22:51.988Z,3.11
2022-09-02T20:25:24.418Z,3.15
2022-09-02T20:28:16.318Z,3.05
2022-09-02T20:30:49.074Z,3.22
2022-09-02T20:33:17.453Z,2.99
2022-09-02T20:35:53.134Z,3.19
2022-09-02T20:38:39.957Z,3.39
2022-09-02T20:41:18.083Z,3.21
2022-09-02T20:44:06.832Z,2.81
2022-09-02T20:46:36.884Z,3.18
2022-09-02T20:49:16.308Z,3.08
2022-09-02T20:52:01.940Z,3.10
2022-09-02T20:54:34.642Z,2.67
2022-09-02T20:57:20.049Z,2.83
2022-09-02T20:59:49.921Z,3.11
2022-09-02T21:02:18.915Z,3.13
2022-09-02T21:04:51.411Z,3.11
2022-09-02T21:07:23.307Z,2.88
2022-09-02T21:10:03.703Z,3.00
2022-09-02T21:12:40.297Z,2.81
2022-09-02T21:15:25.889Z,2.74
2022-09-02T21:17:58.568Z,3.15
2022-09-02T21:20:38.885Z,2.97
2022-09-02T21:23:11.928Z,2.73
2022-09-02T21:25:56.185Z,2.89
2022-09-02T21:28:37.845Z,2.53
2022-09-02T21:31:23.459Z,2.74
2022-09-02T21:33:52.446Z,2.66
2022-09-02T21:36:24.078Z,2.76
2022-09-02T21:38:54.179Z,2.89
2022-09-02T21:41:29.926Z,2.89
2022-09-02T21:44:23.220Z,2.56
2022-09-02T21:47:03.996Z,2.76
2022-09-02T21:49:39.507Z,2.82
2022-09-02T21:52:18.685Z,2.77
2022-09-02T21:54:48.027Z,2.75
2022-09-02T21:57:25.125Z,2.90
2022-09-02T22:00:00.786Z,2.89
2022-09-02T22:02:33.166Z,2.64
2022-09-02T22:05:07.708Z,2.54
2022-09-02T22:07:44.398Z,2.78
2022-09-02T22:10:28.612Z,2.94
2022-09-02T22:13:03.547Z,2.69
2022-09-02T22:15:58.266Z,2.82
2022-09-02T22:18:52.496Z,2.72
2022-09-02T22:21:25.215Z,2.76
2022-09-02T22:23:54.404Z,2.75
2022-09-02T22:26:28.953Z,3.03
2022-09-02T22:29:01.173Z,3.00
2022-09-02T22:31:29.125Z,2.84
2022-09-02T22:33:58.827Z,2.88
2022-09-02T22:36:35.101Z,2.81
2022-09-02T22:39:02.456Z,2.94
2022-09-02T22:41:35.836Z,3.24
2022-09-02T22:44:02.393Z,2.64
2022-09-02T22:47:06.952Z,3.07
2022-09-02T22:49:56.467Z,3.14
2022-09-02T22:52:45.114Z,3.37
2022-09-02T22:55:13.779Z,2.95
2022-09-02T22:57:59.384Z,2.91
2022-09-02T23:00:28.042Z,3.02
2022-09-02T23:03:14.676Z,2.90
2022-09-02T23:05:53.612Z,2.73
2022-09-02T23:08:21.722Z,2.95
2022-09-02T23:11:03.843Z,3.05
2022-09-02T23:13:42.458Z,2.94
2022-09-02T23:16:26.104Z,2.85
2022-09-02T23:19:12.050Z,3.04
2022-09-02T23:21:54.442Z,2.85
2022-09-02T23:24:45.099Z,2.87
2022-09-02T23:27:27.071Z,3.02
2022-09-02T23:29:54.947Z,2.82
2022-09-02T23:32:33.258Z,2.75
2022-09-02T23:35:17.475Z,2.94
2022-09-02T23:37:47.095Z,2.77
2022-09-02T23:40:27.863Z,2.80
2022-09-02T23:42:59.421Z,2.84
2022-09-02T23:45:27.665Z,2.69
2022-09-02T23:48:09.559Z,3.04
2022-09-02T23:50:47.118Z,3.01
2022-09-02T23:53:32.672Z,3.02
2022-09-02T23:56:33.566Z,2.95
2022-09-02T23:59:00.231Z,3.09
